createdAt,value
2023-02-15T00:07:48.173Z,2.80
2023-02-15T00:53:09.880Z,4.80
2023-02-15T00:58:13.121Z,2.50
2023-02-15T01:03:17.338Z,2.50
2023-02-15T01:23:26.381Z,2.30
2023-02-15T01:28:29.467Z,2.20
2023-02-15T01:38:34.327Z,2.20
2023-02-15T01:43:44.751Z,2.20
2023-02-15T01:48:51.155Z,2.00
2023-02-15T01:53:59.268Z,2.00
2023-02-15T01:59:07.061Z,2.00
2023-02-15T02:04:26.859Z,2.10
2023-02-15T02:14:32.147Z,2.00
2023-02-15T02:20:15.052Z,2.00
2023-02-15T02:25:35.582Z,1.90
2023-02-15T02:31:01.791Z,1.90
2023-02-15T02:36:16.110Z,1.80
2023-02-15T02:41:42.130Z,1.70
2023-02-15T02:46:51.718Z,1.70
2023-02-15T02:52:04.517Z,1.70
2023-02-15T02:57:10.288Z,0.90
2023-02-15T03:02:22.566Z,1.50
2023-02-15T03:12:34.732Z,1.70
2023-02-15T03:17:41.911Z,1.60
2023-02-15T03:22:52.103Z,1.60
2023-02-15T03:27:59.107Z,1.50
2023-02-15T03:33:02.013Z,1.40
2023-02-15T03:38:09.320Z,1.50
2023-02-15T03:43:31.363Z,1.40
2023-02-15T03:48:39.308Z,1.30
2023-02-15T03:53:42.897Z,1.40
2023-02-15T04:04:20.702Z,1.40
2023-02-15T04:30:50.329Z,1.10
2023-02-15T05:26:40.697Z,0.90
2023-02-15T05:31:45.501Z,0.90
2023-02-15T06:07:01.724Z,0.90
2023-02-15T06:12:04.004Z,1.50
2023-02-15T06:17:06.387Z,0.70
2023-02-15T06:22:08.368Z,0.70
2023-02-15T06:27:13.173Z,0.80
2023-02-15T07:07:31.880Z,1.00
2023-02-15T07:12:45.994Z,1.20
2023-02-15T07:17:51.571Z,1.20
2023-02-15T07:28:01.776Z,1.40
2023-02-15T07:33:22.702Z,1.60
2023-02-15T07:38:26.020Z,1.80
2023-02-15T07:43:30.541Z,2.00
2023-02-15T07:48:32.669Z,1.60
2023-02-15T07:53:35.358Z,1.40
2023-02-15T07:58:52.663Z,1.70
2023-02-15T08:03:55.515Z,2.00
2023-02-15T08:08:57.436Z,2.00
2023-02-15T08:14:11.250Z,2.40
2023-02-15T08:19:23.911Z,2.60
2023-02-15T08:24:28.296Z,2.90
2023-02-15T08:29:31.206Z,3.00
2023-02-15T08:34:36.385Z,3.80
2023-02-15T08:39:38.489Z,3.80
2023-02-15T08:44:40.242Z,3.80
2023-02-15T08:54:44.549Z,4.60
2023-02-15T08:59:47.274Z,7.00
2023-02-15T09:04:50.803Z,5.00
2023-02-15T09:09:52.577Z,5.30
2023-02-15T09:14:55.937Z,5.50
2023-02-15T09:19:58.217Z,5.60
2023-02-15T09:24:59.985Z,6.00
2023-02-15T09:46:02.968Z,8.00
2023-02-15T09:51:22.805Z,8.90
2023-02-15T09:56:38.831Z,8.80
2023-02-15T10:02:12.811Z,9.00
2023-02-15T10:07:35.652Z,8.00
2023-02-15T10:12:58.769Z,8.00
2023-02-15T10:18:22.229Z,9.00
2023-02-15T10:23:32.668Z,8.60
2023-02-15T10:28:49.724Z,8.70
2023-02-15T10:34:38.309Z,8.60
2023-02-15T10:39:58.348Z,8.70
2023-02-15T10:45:21.252Z,8.80
2023-02-15T10:50:38.389Z,8.80
2023-02-15T10:56:16.414Z,8.90
2023-02-15T11:01:31.929Z,9.60
2023-02-15T11:06:35.829Z,9.70
2023-02-15T11:11:42.003Z,10.30
2023-02-15T11:16:46.929Z,11.80
2023-02-15T11:21:52.946Z,13.00
2023-02-15T11:27:04.137Z,14.00
2023-02-15T11:32:17.228Z,17.70
2023-02-15T11:37:28.346Z,17.30
2023-02-15T11:42:33.905Z,17.40
2023-02-15T11:47:35.759Z,17.90
2023-02-15T11:52:37.596Z,18.40
2023-02-15T11:57:45.108Z,18.50
2023-02-15T12:02:53.136Z,18.90
2023-02-15T12:08:08.420Z,19.20
2023-02-15T12:13:13.027Z,22.60
2023-02-15T12:18:36.465Z,22.60
2023-02-15T12:23:49.569Z,23.20
2023-02-15T12:28:53.326Z,22.90
2023-02-15T12:33:59.100Z,23.70
2023-02-15T12:39:20.609Z,24.60
2023-02-15T12:44:29.944Z,21.70
2023-02-15T12:49:36.508Z,20.70
2023-02-15T12:54:39.740Z,20.50
2023-02-15T13:00:09.528Z,18.60
2023-02-15T13:05:14.756Z,17.20
2023-02-15T13:11:01.425Z,16.20
2023-02-15T13:16:10.889Z,16.10
2023-02-15T13:21:19.723Z,14.90
2023-02-15T13:26:24.774Z,15.40
2023-02-15T13:31:29.554Z,17.50
2023-02-15T13:36:49.401Z,20.80
2023-02-15T13:42:01.162Z,24.80
2023-02-15T13:47:06.022Z,24.10
2023-02-15T13:52:24.288Z,27.10
2023-02-15T13:58:01.260Z,29.20
2023-02-15T14:03:13.398Z,30.00
2023-02-15T14:08:21.498Z,31.60
2023-02-15T14:13:52.405Z,31.00
2023-02-15T14:19:03.246Z,29.90
2023-02-15T14:24:30.596Z,33.20
2023-02-15T14:30:04.366Z,33.80
2023-02-15T14:35:18.831Z,32.40
2023-02-15T14:40:58.987Z,33.30
2023-02-15T14:46:28.809Z,33.00
2023-02-15T14:51:48.783Z,33.30
2023-02-15T14:57:13.834Z,33.50
2023-02-15T15:02:29.175Z,31.80
2023-02-15T15:07:47.513Z,30.70
2023-02-15T15:12:57.705Z,27.80
2023-02-15T15:18:09.360Z,24.70
2023-02-15T15:28:34.510Z,18.00
2023-02-15T15:34:13.028Z,17.80
2023-02-15T15:39:37.865Z,16.30
2023-02-15T15:45:00.372Z,15.90
2023-02-15T15:50:02.598Z,15.50
2023-02-15T15:55:16.716Z,15.00
2023-02-15T16:00:36.886Z,14.60
2023-02-15T16:05:40.123Z,14.00
2023-02-15T16:10:42.251Z,13.50
2023-02-15T16:15:51.049Z,13.30
2023-02-15T16:20:58.015Z,12.40
2023-02-15T16:26:34.096Z,12.00
2023-02-15T16:31:36.035Z,12.00
2023-02-15T16:41:40.237Z,11.40
2023-02-15T16:46:44.937Z,11.00
2023-02-15T16:52:00.621Z,10.70
2023-02-15T16:57:03.184Z,10.20
2023-02-15T17:02:11.642Z,10.10
2023-02-15T17:07:17.578Z,10.10
2023-02-15T17:13:16.858Z,9.80
2023-02-15T17:18:23.772Z,9.50
2023-02-15T17:23:35.631Z,9.40
2023-02-15T17:28:37.811Z,9.20
2023-02-15T17:33:40.389Z,8.90
2023-02-15T17:39:07.732Z,8.70
2023-02-15T17:44:14.791Z,8.50
2023-02-15T17:49:29.358Z,10.90
2023-02-15T17:54:49.559Z,8.30
2023-02-15T18:00:10.411Z,8.80
2023-02-15T18:05:34.663Z,7.90
2023-02-15T18:10:55.038Z,7.80
2023-02-15T18:15:57.611Z,7.70
2023-02-15T18:20:59.434Z,7.50
2023-02-15T18:26:01.267Z,7.30
2023-02-15T18:37:50.655Z,7.20
2023-02-15T18:42:52.434Z,7.00
2023-02-15T18:47:55.271Z,6.90
2023-02-15T18:52:57.217Z,6.80
2023-02-15T18:57:59.289Z,6.50
2023-02-15T19:03:02.314Z,6.60
2023-02-15T19:08:04.756Z,6.30
2023-02-15T19:13:12.147Z,6.30
2023-02-15T19:18:14.009Z,7.00
2023-02-15T19:23:20.672Z,6.30
2023-02-15T19:28:32.664Z,6.10
2023-02-15T19:33:34.885Z,6.30
2023-02-15T19:38:36.966Z,6.00
2023-02-15T19:43:38.841Z,5.90
2023-02-15T19:48:40.598Z,5.90
2023-02-15T19:53:42.804Z,5.50
2023-02-15T19:58:44.622Z,5.50
2023-02-15T20:03:46.447Z,5.40
2023-02-15T20:08:48.492Z,5.40
2023-02-15T20:13:50.276Z,5.60
2023-02-15T20:18:52.173Z,5.50
2023-02-15T20:23:54.189Z,5.50
2023-02-15T20:28:56.047Z,5.40
2023-02-15T20:33:58.694Z,5.30
2023-02-15T20:39:03.128Z,5.30
2023-02-15T20:44:27.652Z,5.10
2023-02-15T20:49:29.572Z,5.10
2023-02-15T20:54:35.051Z,5.10
2023-02-15T20:59:37.624Z,5.10
2023-02-15T21:04:39.488Z,5.00
2023-02-15T21:09:41.204Z,5.00
2023-02-15T21:14:44.012Z,5.00
2023-02-15T21:19:46.300Z,4.80
2023-02-15T21:24:51.367Z,4.90
2023-02-15T21:29:53.118Z,4.50
2023-02-15T21:34:54.944Z,4.50
2023-02-15T21:39:56.816Z,4.50
2023-02-15T21:45:17.100Z,4.70
2023-02-15T21:50:44.013Z,6.20
2023-02-15T21:55:45.752Z,4.40
2023-02-15T22:00:48.407Z,4.30
2023-02-15T22:05:50.372Z,4.40
2023-02-15T22:10:54.763Z,4.30
2023-02-15T22:15:57.088Z,4.40
2023-02-15T22:21:02.025Z,4.50
2023-02-15T22:26:14.030Z,4.30
2023-02-15T22:31:20.971Z,4.40
2023-02-15T22:36:24.708Z,4.40
2023-02-15T22:41:29.820Z,4.20
2023-02-15T22:46:31.899Z,4.10
2023-02-15T22:51:33.636Z,4.10
2023-02-15T22:56:41.859Z,4.10
2023-02-15T23:01:43.623Z,4.10
2023-02-15T23:06:46.117Z,4.00
2023-02-15T23:11:49.997Z,4.00
2023-02-15T23:16:51.888Z,5.00
2023-02-15T23:21:53.865Z,4.10
2023-02-15T23:27:15.959Z,3.80
2023-02-15T23:32:18.139Z,3.80
2023-02-15T23:37:19.942Z,3.80
2023-02-15T23:42:27.822Z,3.70
2023-02-15T23:47:52.049Z,3.50
2023-02-15T23:52:55.313Z,3.50
2023-02-15T23:57:57.069Z,3.50
